Time;durP1;ratioP1;P1;durP2;ratioP2;P2;SDS_P1;SDS_P2;PMS_P1;PMS_P2;Temp;Humidity;BMP_temperature;BMP_pressure;BME280_temperature;BME280_humidity;BME280_pressure;Samples;Min_cycle;Max_cycle;Signal;HPM_P1;HPM_P2
2021/05/23 00:00:45;;;;;;;6.97;1.45;;;17.70;99.90;;;;;;4990033;28;20019;-76
2021/05/23 00:03:14;;;;;;;7.43;1.58;;;17.70;99.90;;;;;;4990157;28;20034;-84
2021/05/23 00:05:41;;;;;;;4.80;1.50;;;17.70;99.90;;;;;;4990058;28;20031;-77
2021/05/23 00:08:13;;;;;;;7.18;1.52;;;17.70;99.90;;;;;;4988741;28;20125;-84
2021/05/23 00:10:43;;;;;;;6.43;1.27;;;17.70;99.90;;;;;;4989886;28;20114;-84
2021/05/23 00:13:10;;;;;;;6.30;1.58;;;17.70;99.90;;;;;;4989599;28;20510;-84
2021/05/23 00:15:45;;;;;;;5.15;1.30;;;17.70;99.90;;;;;;4991118;28;20090;-76
2021/05/23 00:18:12;;;;;;;6.07;1.85;;;17.70;99.90;;;;;;4995420;28;20418;-79
2021/05/23 00:20:38;;;;;;;3.88;1.30;;;17.60;99.90;;;;;;4993175;28;20030;-75
2021/05/23 00:23:04;;;;;;;11.43;2.63;;;17.60;99.90;;;;;;4993276;28;20123;-84
2021/05/23 00:25:31;;;;;;;6.82;1.70;;;17.60;99.90;;;;;;4993253;28;20479;-85
2021/05/23 00:27:57;;;;;;;5.55;1.67;;;17.60;99.90;;;;;;4993025;28;20038;-76
2021/05/23 00:30:23;;;;;;;7.18;1.90;;;17.60;99.90;;;;;;4991670;28;20038;-75
2021/05/23 00:32:50;;;;;;;5.93;1.10;;;17.60;99.90;;;;;;4991806;28;20058;-85
2021/05/23 00:35:17;;;;;;;6.80;1.25;;;17.60;99.90;;;;;;4992712;28;20028;-75
2021/05/23 00:37:43;;;;;;;3.08;1.17;;;17.70;99.90;;;;;;4991612;28;20087;-76
2021/05/23 00:40:10;;;;;;;3.87;1.17;;;17.60;99.90;;;;;;4991992;28;20038;-82
2021/05/23 00:42:37;;;;;;;3.67;1.27;;;17.60;99.90;;;;;;4992944;28;20261;-84
2021/05/23 00:45:05;;;;;;;3.05;1.42;;;17.60;99.90;;;;;;4992772;28;20034;-76
2021/05/23 00:47:32;;;;;;;6.28;1.60;;;17.60;99.90;;;;;;4992963;28;20030;-84
2021/05/23 00:49:58;;;;;;;3.03;0.98;;;17.60;99.90;;;;;;4991634;28;20506;-76
2021/05/23 00:52:24;;;;;;;4.22;1.45;;;17.60;99.90;;;;;;4992655;28;20027;-84
2021/05/23 00:54:49;;;;;;;4.43;1.25;;;17.60;99.90;;;;;;4992809;28;20038;-77
2021/05/23 00:57:16;;;;;;;2.77;1.23;;;17.60;99.90;;;;;;4992931;28;20029;-85
2021/05/23 00:59:42;;;;;;;5.00;1.73;;;17.70;99.90;;;;;;4992713;28;20308;-79
2021/05/23 01:02:08;;;;;;;4.85;1.58;;;17.70;99.90;;;;;;4992569;28;20488;-78
2021/05/23 01:04:40;;;;;;;4.37;1.27;;;17.60;99.90;;;;;;4992488;28;20022;-85
2021/05/23 01:07:07;;;;;;;9.15;1.42;;;17.60;99.90;;;;;;4992510;28;20269;-76
2021/05/23 01:09:33;;;;;;;4.03;1.17;;;17.70;99.90;;;;;;4992517;28;20049;-83
2021/05/23 01:12:24;;;;;;;3.63;1.50;;;17.70;99.90;;;;;;4992649;28;20105;-76
2021/05/23 01:14:53;;;;;;;5.25;1.92;;;17.70;99.90;;;;;;4992245;28;20354;-84
2021/05/23 01:17:21;;;;;;;4.15;1.30;;;17.70;99.90;;;;;;4992277;28;20478;-81
2021/05/23 01:20:02;;;;;;;5.07;1.60;;;17.60;99.90;;;;;;4992505;28;20027;-81
2021/05/23 01:22:47;;;;;;;4.00;1.90;;;17.60;99.90;;;;;;4992276;28;20022;-75
2021/05/23 01:25:25;;;;;;;17.48;3.65;;;17.60;99.90;;;;;;4992244;28;20030;-77
2021/05/23 01:27:52;;;;;;;10.45;1.52;;;17.60;99.90;;;;;;4995552;28;20148;-76
2021/05/23 01:30:28;;;;;;;5.85;1.50;;;17.50;99.90;;;;;;4998034;28;20022;-84
2021/05/23 01:33:02;;;;;;;5.95;1.10;;;17.50;99.90;;;;;;4990885;28;20038;-83
2021/05/23 01:35:34;;;;;;;6.18;2.17;;;17.50;99.90;;;;;;4992150;28;20042;-83
2021/05/23 01:38:02;;;;;;;3.83;1.73;;;17.40;99.90;;;;;;4992118;28;20409;-85
2021/05/23 01:40:34;;;;;;;6.50;1.35;;;17.40;99.90;;;;;;4992229;28;20027;-84
2021/05/23 01:43:00;;;;;;;4.13;1.50;;;17.40;99.90;;;;;;4991816;28;20398;-85
2021/05/23 01:45:28;;;;;;;9.25;2.30;;;17.40;99.90;;;;;;4992000;28;20080;-76
2021/05/23 01:47:54;;;;;;;2.65;1.23;;;17.40;99.90;;;;;;4990792;28;20054;-83
2021/05/23 01:50:20;;;;;;;7.05;1.25;;;17.40;99.90;;;;;;4990868;28;20026;-85
2021/05/23 01:52:49;;;;;;;4.70;1.77;;;17.40;99.90;;;;;;4991849;28;20030;-85
2021/05/23 01:55:16;;;;;;;8.95;1.60;;;17.50;99.90;;;;;;4991725;28;20468;-84
2021/05/23 01:57:43;;;;;;;5.82;1.58;;;17.50;99.90;;;;;;4991785;28;20487;-84
2021/05/23 02:00:10;;;;;;;9.55;1.55;;;17.50;99.90;;;;;;4991576;28;20113;-85
2021/05/23 02:02:37;;;;;;;5.65;2.42;;;17.50;99.90;;;;;;4991659;28;20071;-84
2021/05/23 02:05:05;;;;;;;5.18;1.55;;;17.50;99.90;;;;;;4991744;28;20042;-84
2021/05/23 02:07:31;;;;;;;5.88;1.77;;;17.50;99.90;;;;;;4990387;28;20034;-81
2021/05/23 02:09:57;;;;;;;7.88;1.60;;;17.50;99.90;;;;;;4991636;28;20391;-83
2021/05/23 02:12:25;;;;;;;6.20;1.52;;;17.60;99.90;;;;;;4991448;28;20029;-82
2021/05/23 02:14:51;;;;;;;7.35;1.50;;;17.60;99.90;;;;;;4991029;28;20092;-80
2021/05/23 02:17:16;;;;;;;5.18;1.20;;;17.60;99.90;;;;;;4991292;28;20042;-81
2021/05/23 02:19:49;;;;;;;2.95;1.50;;;17.70;99.90;;;;;;4991431;28;20027;-77
2021/05/23 02:22:16;;;;;;;7.35;1.52;;;17.70;99.90;;;;;;4991218;28;20384;-79
2021/05/23 02:24:45;;;;;;;3.75;1.38;;;17.60;99.90;;;;;;4991229;28;20034;-75
2021/05/23 02:27:12;;;;;;;4.78;1.38;;;17.70;99.90;;;;;;4991322;28;20034;-85
2021/05/23 02:29:38;;;;;;;7.68;2.45;;;17.70;99.90;;;;;;4991507;28;20034;-84
2021/05/23 02:32:08;;;;;;;2.50;1.00;;;17.60;99.90;;;;;;4991321;28;20033;-84
2021/05/23 02:34:44;;;;;;;5.28;1.45;;;17.60;99.90;;;;;;4991115;28;20039;-84
2021/05/23 02:37:10;;;;;;;9.45;2.50;;;17.60;99.90;;;;;;4991309;28;20057;-84
2021/05/23 02:39:36;;;;;;;8.07;1.70;;;17.50;99.90;;;;;;5000757;28;20103;-76
2021/05/23 02:42:02;;;;;;;2.93;1.53;;;17.50;99.90;;;;;;4994035;28;20050;-84
2021/05/23 02:44:28;;;;;;;6.28;2.28;;;17.50;99.90;;;;;;4991059;28;20091;-75
2021/05/23 02:46:53;;;;;;;7.07;2.07;;;17.50;99.90;;;;;;4991113;28;20389;-76
2021/05/23 02:49:19;;;;;;;6.10;2.17;;;17.50;99.90;;;;;;4990833;28;20534;-82
2021/05/23 02:51:45;;;;;;;5.50;1.40;;;17.50;99.90;;;;;;4991340;28;20026;-83
2021/05/23 02:54:11;;;;;;;4.10;1.60;;;17.50;99.90;;;;;;4990864;28;20027;-85
2021/05/23 02:56:37;;;;;;;4.30;2.27;;;17.50;99.90;;;;;;4990784;28;20026;-82
2021/05/23 02:59:03;;;;;;;11.90;2.30;;;17.50;99.90;;;;;;4990760;28;20841;-84
2021/05/23 03:01:29;;;;;;;6.55;1.77;;;17.50;99.90;;;;;;4990630;28;20391;-84
2021/05/23 03:03:55;;;;;;;5.90;1.83;;;17.50;99.90;;;;;;4990802;28;20493;-82
2021/05/23 03:06:21;;;;;;;14.20;2.65;;;17.50;99.90;;;;;;4989845;28;20031;-83
2021/05/23 03:08:47;;;;;;;3.33;1.77;;;17.50;99.90;;;;;;4990807;28;20057;-76
2021/05/23 03:11:13;;;;;;;12.10;2.23;;;17.60;99.90;;;;;;4990784;28;20494;-82
2021/05/23 03:13:39;;;;;;;5.20;2.00;;;17.60;99.90;;;;;;4990489;28;20046;-84
2021/05/23 03:16:05;;;;;;;4.88;1.77;;;17.50;99.90;;;;;;4990508;28;20040;-77
2021/05/23 03:18:31;;;;;;;11.70;1.85;;;17.50;99.90;;;;;;4990637;28;20041;-76
2021/05/23 03:20:57;;;;;;;5.55;1.92;;;17.50;99.90;;;;;;4990752;28;20117;-84
2021/05/23 03:23:22;;;;;;;8.90;1.70;;;17.60;99.90;;;;;;4990559;28;20378;-84
2021/05/23 03:25:49;;;;;;;5.85;2.50;;;17.60;99.90;;;;;;4990816;28;20037;-82
2021/05/23 03:28:15;;;;;;;13.18;2.17;;;17.60;99.90;;;;;;4990355;28;20029;-85
2021/05/23 03:30:42;;;;;;;7.35;1.48;;;17.60;99.90;;;;;;4989336;28;20026;-85
2021/05/23 03:33:09;;;;;;;9.48;2.60;;;17.60;99.90;;;;;;4990525;28;20061;-80
2021/05/23 03:35:35;;;;;;;8.52;2.25;;;17.50;99.90;;;;;;4990700;28;20113;-84
2021/05/23 03:38:03;;;;;;;4.00;1.67;;;17.50;99.90;;;;;;4990391;28;20506;-76
2021/05/23 03:40:35;;;;;;;6.93;2.28;;;17.40;99.90;;;;;;4990186;28;20523;-85
2021/05/23 03:43:01;;;;;;;6.45;1.95;;;17.50;99.90;;;;;;4990252;28;20058;-75
2021/05/23 03:45:27;;;;;;;4.75;1.70;;;17.40;99.90;;;;;;4990247;28;20038;-84
2021/05/23 03:47:54;;;;;;;5.53;2.13;;;17.40;99.90;;;;;;4990323;28;20039;-82
2021/05/23 03:50:22;;;;;;;4.30;1.70;;;17.50;99.90;;;;;;4996644;28;20277;-76
2021/05/23 03:52:50;;;;;;;8.88;3.17;;;17.50;99.90;;;;;;4999269;28;20075;-84
2021/05/23 03:55:17;;;;;;;7.93;2.50;;;17.40;99.90;;;;;;4993476;28;20046;-82
2021/05/23 03:57:43;;;;;;;9.07;2.40;;;17.50;99.90;;;;;;4994013;28;20052;-85
2021/05/23 04:00:11;;;;;;;9.48;2.05;;;17.50;99.90;;;;;;4993675;28;20406;-85
2021/05/23 04:02:41;;;;;;;8.43;2.42;;;17.50;99.90;;;;;;4993552;28;20033;-84
2021/05/23 04:05:09;;;;;;;3.17;1.85;;;17.60;99.90;;;;;;4993489;28;20117;-77
2021/05/23 04:07:35;;;;;;;6.85;1.80;;;17.60;99.90;;;;;;4993768;28;20075;-80
2021/05/23 04:10:03;;;;;;;6.57;2.08;;;17.70;99.90;;;;;;4993315;28;20027;-85
2021/05/23 04:12:33;;;;;;;5.22;1.73;;;17.70;99.90;;;;;;4993372;28;20026;-80
2021/05/23 04:14:59;;;;;;;4.18;2.20;;;17.70;99.90;;;;;;4993077;28;20407;-85
2021/05/23 04:17:27;;;;;;;5.77;2.43;;;17.70;99.90;;;;;;4993400;28;20033;-76
2021/05/23 04:19:53;;;;;;;3.33;2.00;;;17.70;99.90;;;;;;4993409;28;20261;-85
2021/05/23 04:22:19;;;;;;;8.43;2.70;;;17.70;99.90;;;;;;4993145;28;20019;-82
2021/05/23 04:24:45;;;;;;;6.45;1.88;;;17.80;99.90;;;;;;4993308;28;20091;-85
2021/05/23 04:27:10;;;;;;;6.68;1.83;;;17.80;99.90;;;;;;4992988;28;20038;-86
2021/05/23 04:29:37;;;;;;;7.50;1.70;;;17.80;99.90;;;;;;4993085;28;20029;-82
2021/05/23 04:32:08;;;;;;;5.85;2.05;;;17.90;99.90;;;;;;4993104;28;20475;-77
2021/05/23 04:34:35;;;;;;;5.38;2.10;;;17.90;99.90;;;;;;4992734;28;20042;-83
2021/05/23 04:37:01;;;;;;;4.55;1.90;;;17.90;99.90;;;;;;4991939;28;20482;-85
2021/05/23 04:39:27;;;;;;;5.80;1.70;;;17.90;99.90;;;;;;4993023;28;20026;-76
2021/05/23 04:41:53;;;;;;;2.53;1.67;;;17.90;99.90;;;;;;4993228;28;20030;-81
2021/05/23 04:44:19;;;;;;;9.47;2.03;;;18.00;99.90;;;;;;4992771;28;20022;-76
2021/05/23 04:46:45;;;;;;;6.68;2.10;;;18.00;99.90;;;;;;4992838;28;20040;-76
2021/05/23 04:49:11;;;;;;;6.37;1.60;;;18.00;99.90;;;;;;4992609;28;20387;-84
2021/05/23 04:51:37;;;;;;;4.68;2.10;;;18.10;99.90;;;;;;4992998;28;20274;-85
2021/05/23 04:54:03;;;;;;;8.02;1.85;;;18.10;99.90;;;;;;4992473;28;20482;-85
2021/05/23 04:56:29;;;;;;;6.15;2.08;;;18.20;99.90;;;;;;4992721;28;20034;-77
2021/05/23 04:58:55;;;;;;;6.18;2.42;;;18.20;99.90;;;;;;4992615;28;20019;-85
2021/05/23 05:01:21;;;;;;;6.20;1.87;;;18.30;99.90;;;;;;4993521;28;20031;-83
2021/05/23 05:03:47;;;;;;;7.17;2.27;;;18.30;99.90;;;;;;4998445;28;20109;-82
2021/05/23 05:06:13;;;;;;;6.03;2.90;;;18.30;99.90;;;;;;4992704;28;20073;-84
2021/05/23 05:08:38;;;;;;;4.00;1.60;;;18.30;99.90;;;;;;4992518;28;20072;-83
2021/05/23 05:11:04;;;;;;;6.03;2.33;;;18.40;99.90;;;;;;4992529;28;20026;-84
2021/05/23 05:13:30;;;;;;;7.27;2.03;;;18.40;99.90;;;;;;4992332;28;20732;-85
2021/05/23 05:15:56;;;;;;;10.63;1.85;;;18.50;99.90;;;;;;4992405;28;20043;-85
2021/05/23 05:18:22;;;;;;;10.37;2.10;;;18.50;99.90;;;;;;4992307;28;20038;-76
2021/05/23 05:20:48;;;;;;;4.77;1.97;;;18.50;99.90;;;;;;4992437;28;20273;-80
2021/05/23 05:23:14;;;;;;;3.63;1.92;;;18.50;99.90;;;;;;4992355;28;20030;-76
2021/05/23 05:25:40;;;;;;;7.83;2.70;;;18.50;99.90;;;;;;4992336;28;20022;-78
2021/05/23 05:28:06;;;;;;;5.82;2.78;;;18.60;99.90;;;;;;4990939;28;20375;-77
2021/05/23 05:30:31;;;;;;;10.77;3.10;;;18.60;99.90;;;;;;4992318;28;20037;-75
2021/05/23 05:32:57;;;;;;;7.60;3.08;;;18.60;99.90;;;;;;4992221;28;20026;-84
2021/05/23 05:35:23;;;;;;;8.33;2.43;;;18.60;99.90;;;;;;4992064;28;20131;-78
2021/05/23 05:37:49;;;;;;;7.30;3.95;;;18.60;99.90;;;;;;4992049;28;20757;-85
2021/05/23 05:40:15;;;;;;;5.57;2.53;;;18.70;99.90;;;;;;4991946;28;20109;-76
2021/05/23 05:42:41;;;;;;;8.75;2.95;;;18.70;99.90;;;;;;4992151;28;20018;-76
2021/05/23 05:45:08;;;;;;;16.98;4.47;;;18.80;99.90;;;;;;4990823;28;20490;-75
2021/05/23 05:47:34;;;;;;;4.47;3.08;;;18.80;99.90;;;;;;4990782;28;20505;-81
2021/05/23 05:50:00;;;;;;;12.35;2.15;;;18.90;99.90;;;;;;4991971;28;20045;-75
2021/05/23 05:52:26;;;;;;;6.10;3.28;;;18.90;99.90;;;;;;4991987;28;20477;-82
2021/05/23 05:54:52;;;;;;;6.30;2.67;;;19.00;99.90;;;;;;4991837;28;20113;-79
2021/05/23 05:57:18;;;;;;;9.33;3.90;;;19.00;99.90;;;;;;4990665;28;20062;-85
2021/05/23 05:59:45;;;;;;;7.25;3.40;;;19.10;99.90;;;;;;4991663;28;20827;-76
2021/05/23 06:02:11;;;;;;;13.00;3.70;;;19.20;99.90;;;;;;4991714;28;20076;-85
2021/05/23 06:04:37;;;;;;;10.05;3.08;;;19.20;99.90;;;;;;4991806;28;20026;-75
2021/05/23 06:07:02;;;;;;;3.60;1.92;;;19.30;99.90;;;;;;4991543;28;20042;-84
2021/05/23 06:09:28;;;;;;;7.87;2.20;;;19.30;99.90;;;;;;4991557;28;20030;-84
2021/05/23 06:11:54;;;;;;;6.03;2.17;;;19.30;99.90;;;;;;4991958;28;20657;-84
2021/05/23 06:14:20;;;;;;;5.97;2.70;;;19.30;99.90;;;;;;4997312;28;20045;-83
2021/05/23 06:16:46;;;;;;;10.35;2.80;;;19.40;99.90;;;;;;4991199;28;20121;-83
2021/05/23 06:19:12;;;;;;;16.97;3.40;;;19.40;99.90;;;;;;4991247;28;20034;-85
2021/05/23 06:21:38;;;;;;;10.93;3.10;;;19.40;99.90;;;;;;4991386;28;20668;-78
2021/05/23 06:24:04;;;;;;;3.83;2.40;;;19.50;99.90;;;;;;4991397;28;20279;-84
2021/05/23 06:26:30;;;;;;;8.07;2.85;;;19.50;99.90;;;;;;4991394;28;20447;-76
2021/05/23 06:28:56;;;;;;;7.30;2.67;;;19.50;99.90;;;;;;4991377;28;20054;-86
2021/05/23 06:31:22;;;;;;;7.17;3.13;;;19.50;99.90;;;;;;4991198;28;20086;-84
2021/05/23 06:33:48;;;;;;;13.43;4.45;;;19.50;99.90;;;;;;4991229;28;20262;-85
2021/05/23 06:36:15;;;;;;;7.70;3.25;;;19.50;99.90;;;;;;4991175;28;20038;-85
2021/05/23 06:38:41;;;;;;;6.05;2.15;;;19.60;99.90;;;;;;4991242;28;20075;-85
2021/05/23 06:41:06;;;;;;;5.63;3.03;;;19.60;99.90;;;;;;4991097;28;20108;-76
2021/05/23 06:43:32;;;;;;;8.47;2.77;;;19.60;99.90;;;;;;4991030;28;20265;-76
2021/05/23 06:45:58;;;;;;;5.35;2.65;;;19.60;99.90;;;;;;4991240;28;20300;-77
2021/05/23 06:48:25;;;;;;;7.47;2.47;;;19.60;99.90;;;;;;4990974;28;20022;-81
2021/05/23 06:50:51;;;;;;;3.33;2.42;;;19.70;99.90;;;;;;4991206;28;20034;-84
2021/05/23 06:53:17;;;;;;;6.50;2.42;;;19.80;99.90;;;;;;4990811;28;20113;-86
2021/05/23 06:55:43;;;;;;;6.18;2.33;;;19.90;99.90;;;;;;4990763;28;20130;-76
2021/05/23 06:58:09;;;;;;;6.80;2.25;;;20.10;99.90;;;;;;4990924;28;20406;-76
2021/05/23 07:00:35;;;;;;;10.43;3.37;;;20.30;99.90;;;;;;4991163;28;20653;-86
2021/05/23 07:03:01;;;;;;;6.33;2.93;;;20.40;99.90;;;;;;4990804;28;20273;-75
2021/05/23 07:05:27;;;;;;;4.00;2.00;;;20.40;99.90;;;;;;4990957;28;20284;-85
2021/05/23 07:07:53;;;;;;;4.13;2.10;;;20.40;99.90;;;;;;4990916;28;20079;-80
2021/05/23 07:10:19;;;;;;;7.23;2.10;;;20.50;99.90;;;;;;4989346;28;20030;-86
2021/05/23 07:12:45;;;;;;;2.95;1.85;;;20.50;99.90;;;;;;4990696;28;20042;-75
2021/05/23 07:15:11;;;;;;;4.07;2.20;;;20.60;99.90;;;;;;4990692;28;20384;-76
2021/05/23 07:17:37;;;;;;;5.30;2.42;;;20.70;99.90;;;;;;4990690;28;20033;-85
2021/05/23 07:20:04;;;;;;;3.45;1.85;;;20.70;99.90;;;;;;4990631;28;20065;-80
2021/05/23 07:22:31;;;;;;;4.45;1.88;;;20.80;99.90;;;;;;4990305;28;20083;-83
2021/05/23 07:24:57;;;;;;;5.90;2.63;;;20.90;99.90;;;;;;4993404;28;20030;-76
2021/05/23 07:27:23;;;;;;;9.10;2.63;;;20.90;99.90;;;;;;4996229;28;20487;-84
2021/05/23 07:29:49;;;;;;;4.90;2.05;;;20.80;99.90;;;;;;4990616;28;20490;-76
2021/05/23 07:32:15;;;;;;;4.67;2.20;;;20.80;99.90;;;;;;4990476;28;20378;-75
2021/05/23 07:34:41;;;;;;;5.55;2.03;;;20.80;99.90;;;;;;4990456;28;20034;-85
2021/05/23 07:37:07;;;;;;;6.37;1.80;;;21.00;99.90;;;;;;4990434;28;20029;-85
2021/05/23 07:39:33;;;;;;;6.10;2.10;;;21.20;99.90;;;;;;4990403;28;20026;-76
2021/05/23 07:41:59;;;;;;;5.53;1.80;;;21.30;99.90;;;;;;4990440;28;20027;-75
2021/05/23 07:44:25;;;;;;;4.50;2.00;;;21.20;99.90;;;;;;4990438;28;20022;-84
2021/05/23 07:46:51;;;;;;;3.67;1.77;;;21.20;99.90;;;;;;4989368;28;20039;-84
2021/05/23 07:49:17;;;;;;;5.60;2.75;;;21.20;99.90;;;;;;4990266;28;20044;-75
2021/05/23 07:51:44;;;;;;;4.45;2.03;;;21.20;99.90;;;;;;4990279;28;20061;-79
2021/05/23 07:54:10;;;;;;;6.35;2.35;;;21.10;99.90;;;;;;4990000;28;20022;-83
2021/05/23 07:56:36;;;;;;;5.90;1.77;;;21.10;99.90;;;;;;4990613;28;20084;-85
2021/05/23 07:59:02;;;;;;;4.53;2.47;;;21.30;99.90;;;;;;4990083;28;20811;-76
2021/05/23 08:01:28;;;;;;;5.20;2.00;;;21.40;99.90;;;;;;4990180;28;20033;-76
2021/05/23 08:03:54;;;;;;;2.73;1.77;;;21.50;99.90;;;;;;4990074;28;20034;-83
2021/05/23 08:06:20;;;;;;;4.05;2.00;;;21.50;99.90;;;;;;4990093;28;20273;-82
2021/05/23 08:08:46;;;;;;;3.17;1.38;;;21.60;99.90;;;;;;4990006;28;20030;-77
2021/05/23 08:11:12;;;;;;;3.85;2.13;;;21.50;99.90;;;;;;4989840;28;20033;-77
2021/05/23 08:13:38;;;;;;;5.20;1.93;;;21.50;99.90;;;;;;4989822;28;20050;-76
2021/05/23 08:16:07;;;;;;;8.15;2.60;;;21.50;99.90;;;;;;4990020;28;20066;-81
2021/05/23 08:18:33;;;;;;;9.07;2.92;;;21.70;99.90;;;;;;4989960;28;20054;-75
2021/05/23 08:21:01;;;;;;;5.93;2.05;;;21.80;99.90;;;;;;4989914;28;20515;-80
2021/05/23 08:23:29;;;;;;;4.78;2.10;;;21.90;99.90;;;;;;4989971;28;20113;-85
2021/05/23 08:25:57;;;;;;;7.10;2.30;;;21.80;99.90;;;;;;4989845;28;20478;-84
2021/05/23 08:28:23;;;;;;;5.65;2.35;;;21.80;99.90;;;;;;4989811;28;20030;-86
2021/05/23 08:30:50;;;;;;;6.97;2.50;;;21.70;99.90;;;;;;4989689;28;20030;-75
2021/05/23 08:33:16;;;;;;;8.23;2.47;;;21.70;99.90;;;;;;4989849;28;20134;-75
2021/05/23 08:35:42;;;;;;;6.18;2.30;;;21.70;99.90;;;;;;4973480;28;20039;-75
2021/05/23 08:38:08;;;;;;;9.45;2.78;;;21.80;99.90;;;;;;4998598;28;20046;-85
2021/05/23 08:40:37;;;;;;;6.57;1.98;;;22.00;99.90;;;;;;4992982;28;20041;-79
2021/05/23 08:43:08;;;;;;;4.68;1.63;;;22.10;99.90;;;;;;4992946;28;20497;-75
2021/05/23 08:45:34;;;;;;;6.38;1.98;;;22.10;99.90;;;;;;4992817;28;20038;-77
2021/05/23 08:48:00;;;;;;;7.60;2.92;;;22.20;99.90;;;;;;4992781;28;20026;-86
2021/05/23 08:50:26;;;;;;;3.10;1.17;;;22.20;99.90;;;;;;4992890;28;20033;-81
2021/05/23 08:52:57;;;;;;;6.97;2.08;;;22.20;99.60;;;;;;4993152;28;20053;-75
2021/05/23 08:55:24;;;;;;;6.03;1.73;;;22.30;99.90;;;;;;4992884;28;20502;-76
2021/05/23 08:57:52;;;;;;;10.38;2.10;;;22.50;99.90;;;;;;4992633;28;20027;-81
2021/05/23 09:00:19;;;;;;;5.95;2.60;;;22.70;99.80;;;;;;4992693;28;20113;-86
2021/05/23 09:02:51;;;;;;;4.22;1.75;;;22.80;99.30;;;;;;4992778;28;20019;-87
2021/05/23 09:05:33;;;;;;;4.95;2.28;;;22.90;99.60;;;;;;4992571;28;20045;-85
2021/05/23 09:08:00;;;;;;;6.90;2.75;;;23.00;98.90;;;;;;4992547;28;20025;-76
2021/05/23 09:10:32;;;;;;;8.48;2.70;;;23.00;98.70;;;;;;4991446;28;20479;-76
2021/05/23 09:12:59;;;;;;;7.50;2.60;;;23.20;98.70;;;;;;4992572;28;20065;-77
2021/05/23 09:15:26;;;;;;;6.13;2.67;;;23.20;98.50;;;;;;4992316;28;20050;-76
2021/05/23 09:18:06;;;;;;;4.78;2.05;;;23.20;98.30;;;;;;4992551;28;20532;-76
2021/05/23 09:20:34;;;;;;;6.88;2.72;;;23.20;98.30;;;;;;4992695;28;20368;-76
2021/05/23 09:23:01;;;;;;;5.30;2.67;;;23.30;98.20;;;;;;4991048;28;20486;-79
2021/05/23 09:25:37;;;;;;;12.23;3.70;;;23.30;98.00;;;;;;4992593;28;20117;-86
2021/05/23 09:28:05;;;;;;;3.72;2.53;;;23.40;97.90;;;;;;4992390;28;20030;-77
2021/05/23 09:30:33;;;;;;;9.02;3.42;;;23.40;97.90;;;;;;4992322;28;20033;-81
2021/05/23 09:32:59;;;;;;;6.22;3.80;;;23.50;97.90;;;;;;4992316;28;20046;-80
2021/05/23 09:35:27;;;;;;;7.20;4.10;;;23.70;97.30;;;;;;4992190;28;20041;-81
2021/05/23 09:38:15;;;;;;;5.97;2.97;;;23.80;97.60;;;;;;4992355;28;20088;-77
2021/05/23 09:40:44;;;;;;;8.20;3.28;;;23.90;97.10;;;;;;4992418;28;20031;-87
2021/05/23 09:43:21;;;;;;;8.63;3.05;;;24.10;97.40;;;;;;4992146;28;20554;-76
2021/05/23 09:45:48;;;;;;;5.05;2.97;;;24.20;96.80;;;;;;4992552;28;20030;-87
2021/05/23 09:48:26;;;;;;;6.75;3.33;;;24.30;96.10;;;;;;4997404;28;20035;-77
2021/05/23 09:50:55;;;;;;;9.70;3.30;;;24.20;96.00;;;;;;4992866;28;20475;-75
2021/05/23 09:53:27;;;;;;;5.50;2.75;;;24.30;96.20;;;;;;4974768;28;20038;-86
2021/05/23 09:56:09;;;;;;;11.35;3.45;;;24.50;96.10;;;;;;4991849;28;20050;-80
2021/05/23 09:58:37;;;;;;;8.35;2.97;;;24.40;96.30;;;;;;4992108;28;20135;-87
2021/05/23 10:01:04;;;;;;;10.57;2.60;;;24.60;96.40;;;;;;4991936;28;20066;-76
2021/05/23 10:03:32;;;;;;;6.05;3.03;;;24.70;96.00;;;;;;4992140;28;20463;-87
2021/05/23 10:06:01;;;;;;;4.95;3.17;;;24.80;95.60;;;;;;4991873;28;20052;-84
2021/05/23 10:08:28;;;;;;;5.40;2.80;;;25.10;95.70;;;;;;4991849;28;20027;-76
2021/05/23 10:10:55;;;;;;;5.28;3.05;;;25.30;95.00;;;;;;4991954;28;20034;-85
2021/05/23 10:13:23;;;;;;;5.35;2.60;;;25.30;95.10;;;;;;4990252;28;20027;-76
2021/05/23 10:15:49;;;;;;;8.70;2.75;;;25.40;95.20;;;;;;4991527;28;20513;-87
2021/05/23 10:18:16;;;;;;;10.63;2.83;;;25.50;94.70;;;;;;4991538;28;20018;-76
2021/05/23 10:20:45;;;;;;;11.60;2.72;;;25.60;94.20;;;;;;4991531;28;20398;-86
2021/05/23 10:23:16;;;;;;;4.60;2.17;;;25.60;94.20;;;;;;4991424;28;20029;-87
2021/05/23 10:25:52;;;;;;;5.43;2.17;;;25.70;93.90;;;;;;4991424;28;20031;-87
2021/05/23 10:28:19;;;;;;;6.88;2.58;;;25.60;94.00;;;;;;4991415;28;20034;-85
2021/05/23 10:30:49;;;;;;;5.38;2.00;;;25.60;93.90;;;;;;4991405;28;20534;-76
2021/05/23 10:33:15;;;;;;;6.05;2.47;;;25.90;93.60;;;;;;4991653;28;20030;-76
2021/05/23 10:35:47;;;;;;;3.95;1.77;;;26.10;93.10;;;;;;4991264;28;20057;-76
2021/05/23 10:38:16;;;;;;;4.55;1.98;;;26.30;93.20;;;;;;4991323;28;20097;-86
2021/05/23 10:41:04;;;;;;;5.82;1.75;;;26.40;93.00;;;;;;4991390;28;20030;-76
2021/05/23 10:43:33;;;;;;;5.05;2.22;;;26.30;92.90;;;;;;4991195;28;20101;-86
2021/05/23 10:46:15;;;;;;;5.13;2.30;;;26.40;92.90;;;;;;4990933;28;20093;-76
2021/05/23 10:49:00;;;;;;;6.72;1.88;;;26.60;92.90;;;;;;4991355;28;20027;-79
2021/05/23 10:51:28;;;;;;;3.55;1.80;;;26.80;92.70;;;;;;4990991;28;20034;-86
2021/05/23 10:53:54;;;;;;;6.65;1.60;;;26.80;92.30;;;;;;4990933;28;20034;-80
2021/05/23 10:56:23;;;;;;;6.43;2.00;;;26.80;92.30;;;;;;4991040;28;20046;-85
2021/05/23 10:58:58;;;;;;;4.18;1.77;;;26.90;91.60;;;;;;4994596;28;20033;-78
2021/05/23 11:01:44;;;;;;;3.92;1.73;;;26.80;92.00;;;;;;5000464;28;20083;-77
2021/05/23 11:04:23;;;;;;;9.55;1.73;;;27.00;91.70;;;;;;4991007;28;20029;-78
2021/05/23 11:06:50;;;;;;;1.92;1.25;;;27.20;91.70;;;;;;4990980;28;20043;-86
2021/05/23 11:09:21;;;;;;;5.57;1.88;;;27.30;91.40;;;;;;4990973;28;20033;-86
2021/05/23 11:11:47;;;;;;;3.35;1.63;;;27.30;91.20;;;;;;4990943;28;20109;-86
2021/05/23 11:14:24;;;;;;;3.30;1.95;;;27.20;91.00;;;;;;4990260;28;20510;-76
2021/05/23 11:16:53;;;;;;;3.25;1.45;;;27.30;91.20;;;;;;4990828;28;20398;-78
2021/05/23 11:19:20;;;;;;;5.28;1.77;;;27.30;90.70;;;;;;4990638;28;20419;-86
2021/05/23 11:21:48;;;;;;;5.03;1.77;;;27.20;91.00;;;;;;4990635;28;20060;-76
2021/05/23 11:24:15;;;;;;;4.68;1.52;;;27.40;90.80;;;;;;4990599;28;20031;-76
2021/05/23 11:26:41;;;;;;;5.63;1.95;;;27.50;90.70;;;;;;4989502;28;20037;-77
2021/05/23 11:29:07;;;;;;;3.85;1.35;;;27.40;90.50;;;;;;4990752;28;20027;-76
2021/05/23 11:31:44;;;;;;;8.25;2.13;;;27.30;90.60;;;;;;4990756;28;20511;-87
2021/05/23 11:34:10;;;;;;;3.70;1.45;;;27.50;90.40;;;;;;4989457;28;20026;-76
2021/05/23 11:36:39;;;;;;;6.70;1.75;;;27.60;90.70;;;;;;4990545;28;20042;-76
2021/05/23 11:39:11;;;;;;;8.02;1.75;;;27.60;90.60;;;;;;4990698;28;20049;-85
2021/05/23 11:41:43;;;;;;;7.20;1.60;;;27.70;90.50;;;;;;4989464;28;20113;-76
2021/05/23 11:44:13;;;;;;;3.67;1.25;;;27.70;90.30;;;;;;4990549;28;20487;-87
2021/05/23 11:46:41;;;;;;;6.07;1.80;;;27.80;90.60;;;;;;4990465;28;20022;-86
2021/05/23 11:49:07;;;;;;;4.07;1.45;;;27.80;90.10;;;;;;4990604;28;20502;-85
2021/05/23 11:51:34;;;;;;;5.90;1.40;;;27.80;90.00;;;;;;4973057;28;20031;-86
2021/05/23 11:54:03;;;;;;;5.32;1.48;;;27.80;90.10;;;;;;4990230;28;20444;-87
2021/05/23 11:56:31;;;;;;;4.75;1.88;;;27.80;89.30;;;;;;4990031;28;20475;-77
2021/05/23 11:59:00;;;;;;;7.90;1.70;;;27.90;89.90;;;;;;4990156;28;20058;-76
2021/05/23 12:01:31;;;;;;;3.78;1.50;;;28.00;89.90;;;;;;4990211;28;20386;-83
2021/05/23 12:04:01;;;;;;;10.50;2.78;;;27.80;89.30;;;;;;4988889;28;20437;-76
2021/05/23 12:06:29;;;;;;;3.70;1.70;;;28.10;89.50;;;;;;4990071;28;20023;-76
2021/05/23 12:09:14;;;;;;;4.25;1.17;;;28.10;89.20;;;;;;4991246;28;20064;-85
2021/05/23 12:11:52;;;;;;;4.03;1.45;;;28.20;89.20;;;;;;4999451;28;20027;-80
2021/05/23 12:14:22;;;;;;;3.63;1.10;;;28.40;88.80;;;;;;4992048;28;20046;-76
2021/05/23 12:16:50;;;;;;;6.93;2.25;;;28.30;88.30;;;;;;4993660;28;20042;-86
2021/05/23 12:19:16;;;;;;;3.90;1.25;;;28.40;87.90;;;;;;4993526;28;20065;-86
2021/05/23 12:21:42;;;;;;;5.15;1.63;;;28.50;87.70;;;;;;4993476;28;20030;-77
2021/05/23 12:24:09;;;;;;;3.90;1.57;;;28.70;86.90;;;;;;4993193;28;20027;-76
2021/05/23 12:26:35;;;;;;;2.65;1.38;;;28.50;87.00;;;;;;4992139;28;20026;-77
2021/05/23 12:29:01;;;;;;;6.30;1.98;;;28.40;87.00;;;;;;4993254;28;20031;-80
2021/05/23 12:31:27;;;;;;;5.20;1.40;;;28.50;87.10;;;;;;4993429;28;20030;-78
2021/05/23 12:33:55;;;;;;;6.17;1.50;;;28.70;87.20;;;;;;4993154;28;20107;-78
2021/05/23 12:36:26;;;;;;;4.20;1.77;;;28.90;85.60;;;;;;4992915;28;20096;-86
2021/05/23 12:38:57;;;;;;;4.55;1.42;;;28.70;85.70;;;;;;4993186;28;20030;-87
2021/05/23 12:41:37;;;;;;;8.82;1.88;;;28.70;86.00;;;;;;4993057;28;20030;-77
2021/05/23 12:44:16;;;;;;;2.80;1.30;;;28.70;86.50;;;;;;4993094;28;20086;-86
2021/05/23 12:46:41;;;;;;;7.28;1.23;;;28.30;86.90;;;;;;4993067;28;20417;-87
2021/05/23 12:49:17;;;;;;;3.03;1.53;;;28.40;87.30;;;;;;4993045;28;20033;-85